createdAt,value
2019-01-21T07:25:04.195Z,0.00
2019-01-21T07:26:04.113Z,0.00
2019-01-21T07:27:04.095Z,0.00
2019-01-21T07:28:03.998Z,0.00
2019-01-21T07:29:03.949Z,0.00
2019-01-21T07:30:04.376Z,0.00
2019-01-21T07:31:03.850Z,0.00
2019-01-21T07:32:03.795Z,0.00
2019-01-21T07:33:03.747Z,0.00
2019-01-21T07:34:03.696Z,0.00
2019-01-21T07:35:03.653Z,0.00
2019-01-21T07:36:03.604Z,0.00
2019-01-21T07:37:03.550Z,0.00
2019-01-21T07:38:03.501Z,0.00
2019-01-21T07:39:03.453Z,0.00
2019-01-21T07:40:03.400Z,0.00
2019-01-21T07:41:03.352Z,0.00
2019-01-21T07:42:03.309Z,0.00
2019-01-21T07:43:03.262Z,0.00
2019-01-21T07:44:03.213Z,0.00
2019-01-21T07:45:03.170Z,0.00
2019-01-21T07:46:03.120Z,0.00
2019-01-21T07:47:03.076Z,0.00
2019-01-21T07:48:03.025Z,0.00
2019-01-21T07:49:02.979Z,0.00
2019-01-21T07:50:02.933Z,0.00
2019-01-21T07:51:02.897Z,0.00
2019-01-21T07:52:02.843Z,0.00
2019-01-21T07:53:02.801Z,0.00
2019-01-21T07:54:02.749Z,0.00
2019-01-21T07:55:02.703Z,0.00
2019-01-21T07:56:02.656Z,0.00
2019-01-21T07:57:02.610Z,0.00
2019-01-21T07:58:02.562Z,0.00
2019-01-21T07:59:02.526Z,0.00
2019-01-21T08:00:02.469Z,0.00
2019-01-21T08:01:02.429Z,0.00
2019-01-21T08:02:02.410Z,0.00
2019-01-21T08:03:02.340Z,0.00
2019-01-21T08:04:02.291Z,0.00
2019-01-21T08:05:02.295Z,0.00
2019-01-21T08:06:02.194Z,0.00
2019-01-21T08:07:02.162Z,0.00
2019-01-21T08:08:02.111Z,0.00
2019-01-21T08:09:02.067Z,0.00
2019-01-21T09:43:34.278Z,0.00
2019-01-21T09:44:34.208Z,0.00
2019-01-21T09:46:27.015Z,0.00
2019-01-21T09:47:26.906Z,0.00
2019-01-21T09:49:20.131Z,0.00
2019-01-21T09:50:20.056Z,0.00
2019-01-21T09:52:12.851Z,0.00
2019-01-21T09:53:12.792Z,0.00
2019-01-21T09:55:05.596Z,0.00
2019-01-21T09:56:05.545Z,0.00
2019-01-21T09:57:58.322Z,0.00
2019-01-21T09:58:58.290Z,0.00
2019-01-21T10:00:51.077Z,0.00
2019-01-21T10:01:51.005Z,0.00
2019-01-21T10:03:44.234Z,0.00
2019-01-21T10:04:44.176Z,0.00
2019-01-21T10:06:37.431Z,0.00
2019-01-21T10:07:37.379Z,0.00
2019-01-21T10:09:30.564Z,0.00
2019-01-21T10:10:30.517Z,0.00
2019-01-21T10:12:23.344Z,0.00
2019-01-21T10:13:23.269Z,0.00
2019-01-21T10:15:16.541Z,0.00
2019-01-21T10:16:16.449Z,0.00
2019-01-21T10:17:16.403Z,0.00
2019-01-21T10:18:16.362Z,0.00
2019-01-21T10:19:16.312Z,0.00
2019-01-21T10:20:16.268Z,0.00
2019-01-21T10:21:16.226Z,0.00
2019-01-21T10:22:16.177Z,0.00
2019-01-21T10:23:17.101Z,0.00
2019-01-21T10:24:16.089Z,0.00
2019-01-21T10:25:16.052Z,0.00
2019-01-21T10:26:15.997Z,0.00
2019-01-21T10:27:15.952Z,0.00
2019-01-21T10:28:15.911Z,0.00
2019-01-21T10:29:15.859Z,0.00
2019-01-21T10:30:15.819Z,0.00
2019-01-21T10:31:15.770Z,0.00
2019-01-21T10:32:15.732Z,0.00
2019-01-21T10:33:15.677Z,0.00
2019-01-21T10:34:15.659Z,0.00
2019-01-21T10:35:15.595Z,0.00
2019-01-21T10:36:15.552Z,0.00
2019-01-21T10:37:15.501Z,0.00
2019-01-21T10:38:15.485Z,0.00
2019-01-21T10:39:15.490Z,0.00
2019-01-21T10:40:15.367Z,0.00
2019-01-21T10:41:15.320Z,0.00
2019-01-21T10:42:15.277Z,0.00
2019-01-21T10:43:16.238Z,0.00
2019-01-21T10:44:15.293Z,0.00
2019-01-21T10:45:15.228Z,0.00
2019-01-21T10:46:15.133Z,5.63
2019-01-21T10:47:15.061Z,5.63
2019-01-21T10:48:15.016Z,5.63
2019-01-21T10:49:14.964Z,5.63
2019-01-21T10:50:14.923Z,5.63
2019-01-21T10:51:14.876Z,5.63
2019-01-21T10:52:14.836Z,5.63
2019-01-21T10:53:14.808Z,5.63
2019-01-21T10:54:14.746Z,0.00
2019-01-21T10:55:14.697Z,5.63
2019-01-21T10:56:14.654Z,0.00
2019-01-21T10:57:14.619Z,0.00
2019-01-21T10:58:14.566Z,5.63
2019-01-21T10:59:14.516Z,5.63
2019-01-21T11:00:14.476Z,5.63
2019-01-21T11:01:14.438Z,5.63
2019-01-21T11:02:14.387Z,5.63
2019-01-21T11:03:14.343Z,5.63
2019-01-21T11:04:14.301Z,5.63
2019-01-21T11:05:14.250Z,5.63
2019-01-21T11:06:14.209Z,5.63
2019-01-21T11:07:14.184Z,5.63
2019-01-21T11:08:14.123Z,5.63
2019-01-21T11:09:14.072Z,5.63
2019-01-21T11:10:14.030Z,5.63
2019-01-21T11:11:13.984Z,5.63
2019-01-21T11:12:13.944Z,5.63
2019-01-21T11:13:13.896Z,5.63
2019-01-21T11:14:13.856Z,5.63
2019-01-21T11:15:13.818Z,5.63
2019-01-21T11:16:13.768Z,5.63
2019-01-21T11:17:13.720Z,5.63
2019-01-21T11:18:13.679Z,5.63
2019-01-21T11:19:13.637Z,5.63
2019-01-21T11:20:13.590Z,5.63
2019-01-21T11:21:13.546Z,5.63
2019-01-21T11:22:13.500Z,5.63
2019-01-21T11:23:13.455Z,5.63
2019-01-21T11:24:13.609Z,5.63
2019-01-21T11:25:13.366Z,5.63
2019-01-21T11:26:13.323Z,5.63
2019-01-21T11:27:13.280Z,5.63
2019-01-21T11:28:13.233Z,5.63
2019-01-21T11:29:13.191Z,5.63
2019-01-21T11:30:13.147Z,5.63
2019-01-21T11:31:13.101Z,5.63
2019-01-21T11:32:13.060Z,5.63
2019-01-21T11:33:13.013Z,5.63
2019-01-21T11:34:12.970Z,5.63
2019-01-21T11:35:12.926Z,5.63
2019-01-21T11:36:12.886Z,5.63
2019-01-21T11:37:12.844Z,5.63
2019-01-21T11:38:12.799Z,5.63
2019-01-21T11:39:12.749Z,11.25
2019-01-21T11:40:12.709Z,11.25
2019-01-21T11:41:12.670Z,5.63
2019-01-21T11:42:12.615Z,11.25
2019-01-21T11:43:12.571Z,16.88
2019-01-21T11:44:12.529Z,16.88
2019-01-21T11:45:12.489Z,22.50
2019-01-21T11:46:12.438Z,28.13
2019-01-21T11:47:12.394Z,33.75
2019-01-21T11:48:12.350Z,33.75
2019-01-21T11:49:12.304Z,39.38
2019-01-21T11:50:12.261Z,45.00
2019-01-21T11:51:12.219Z,45.00
2019-01-21T11:52:12.173Z,50.63
2019-01-21T11:53:12.128Z,50.63
2019-01-21T11:54:12.086Z,56.25
2019-01-21T11:55:12.038Z,61.88
2019-01-21T11:56:11.999Z,67.50
2019-01-21T11:57:11.949Z,73.13
2019-01-21T11:58:11.907Z,78.75
2019-01-21T11:59:11.862Z,84.38
2019-01-21T12:00:11.816Z,84.38
2019-01-21T12:01:11.771Z,84.38
2019-01-21T12:02:11.727Z,90.00
2019-01-21T12:03:11.683Z,95.63
2019-01-21T12:04:11.639Z,101.25
2019-01-21T12:05:11.589Z,106.88
2019-01-21T12:06:11.549Z,118.13
2019-01-21T12:07:11.500Z,118.13
2019-01-21T12:08:11.460Z,118.13
2019-01-21T12:09:11.431Z,112.50
2019-01-21T12:10:11.369Z,106.88
2019-01-21T12:11:11.343Z,101.25
2019-01-21T12:12:11.279Z,84.38
2019-01-21T12:13:11.237Z,84.38
2019-01-21T12:14:11.193Z,90.00
2019-01-21T12:15:11.141Z,112.50
2019-01-21T12:16:11.095Z,135.00
2019-01-21T12:17:11.051Z,168.75
2019-01-21T12:18:11.007Z,185.63
2019-01-21T12:19:10.962Z,196.88
2019-01-21T12:20:16.878Z,185.63
2019-01-21T12:21:10.875Z,174.38
2019-01-21T12:22:10.829Z,174.38
2019-01-21T12:23:10.782Z,174.38
2019-01-21T12:24:10.738Z,180.00
2019-01-21T12:25:10.692Z,191.25
2019-01-21T12:26:10.657Z,202.50
2019-01-21T12:27:10.601Z,225.00
2019-01-21T12:28:10.559Z,247.50
2019-01-21T12:29:10.514Z,264.38
2019-01-21T12:30:10.471Z,270.00
2019-01-21T12:31:10.429Z,275.63
2019-01-21T12:32:10.381Z,281.25
2019-01-21T12:33:10.335Z,286.88
2019-01-21T12:34:10.285Z,292.50
2019-01-21T12:35:10.245Z,292.50
2019-01-21T12:36:10.198Z,298.13
2019-01-21T12:37:10.156Z,303.75
2019-01-21T12:38:10.116Z,309.38
2019-01-21T12:39:10.071Z,315.00
2019-01-21T12:40:10.021Z,320.63
2019-01-21T12:41:09.983Z,326.25
2019-01-21T12:42:09.934Z,331.88
2019-01-21T12:43:09.897Z,337.50
2019-01-21T12:44:09.851Z,343.13
2019-01-21T12:45:09.804Z,348.75
2019-01-21T12:46:09.759Z,343.13
2019-01-21T12:47:09.717Z,348.75
2019-01-21T12:48:09.671Z,354.38
2019-01-21T12:49:09.629Z,202.50
2019-01-21T12:50:09.589Z,326.25
2019-01-21T12:51:09.542Z,298.13
2019-01-21T12:52:09.492Z,264.38
2019-01-21T12:53:09.454Z,236.25
2019-01-21T12:54:09.411Z,196.88
2019-01-21T12:55:09.366Z,157.50
2019-01-21T12:56:09.325Z,129.38
2019-01-21T12:57:09.281Z,106.88
2019-01-21T12:58:09.243Z,90.00
2019-01-21T12:59:09.196Z,73.13
2019-01-21T13:00:09.171Z,61.88
2019-01-21T13:01:09.109Z,50.63
2019-01-21T13:02:09.066Z,39.38
2019-01-21T13:03:09.024Z,33.75
2019-01-21T13:04:09.001Z,33.75
2019-01-21T13:05:08.949Z,28.13
2019-01-21T13:06:08.905Z,28.13
2019-01-21T13:07:08.860Z,22.50
2019-01-21T13:08:08.809Z,22.50
2019-01-21T13:09:08.767Z,16.88
2019-01-21T13:10:08.723Z,16.88
2019-01-21T13:11:08.683Z,16.88
2019-01-21T13:12:08.643Z,11.25
2019-01-21T13:13:08.602Z,11.25
2019-01-21T13:14:08.575Z,11.25
2019-01-21T13:15:08.515Z,5.63
2019-01-21T13:16:08.463Z,5.63
2019-01-21T13:17:08.449Z,5.63
2019-01-21T13:18:08.381Z,5.63
2019-01-21T13:19:08.338Z,5.63
2019-01-21T13:20:08.290Z,5.63
2019-01-21T13:21:08.250Z,5.63
2019-01-21T13:22:08.209Z,5.63
2019-01-21T13:23:08.164Z,5.63
2019-01-21T13:24:08.148Z,5.63
2019-01-21T13:25:08.083Z,5.63
2019-01-21T13:26:08.029Z,5.63
2019-01-21T13:27:08.021Z,5.63
2019-01-21T13:28:07.949Z,5.63
2019-01-21T13:29:08.645Z,5.63
2019-01-21T13:30:07.862Z,5.63
2019-01-21T13:31:07.818Z,5.63
2019-01-21T13:32:07.780Z,5.63
2019-01-21T13:33:07.731Z,5.63
2019-01-21T13:34:07.694Z,5.63
2019-01-21T13:35:07.648Z,5.63
2019-01-21T13:36:07.601Z,5.63
2019-01-21T13:37:07.557Z,5.63
2019-01-21T13:38:07.514Z,5.63
2019-01-21T13:39:07.469Z,5.63
2019-01-21T13:40:07.425Z,5.63
2019-01-21T13:41:07.389Z,5.63
2019-01-21T13:42:07.355Z,5.63
2019-01-21T13:43:07.297Z,5.63
2019-01-21T13:44:07.251Z,5.63
2019-01-21T13:45:07.208Z,5.63
2019-01-21T13:46:07.166Z,5.63
2019-01-21T13:47:07.140Z,5.63
2019-01-21T13:48:07.873Z,5.63
2019-01-21T13:49:07.032Z,5.63
2019-01-21T13:50:06.992Z,5.63
2019-01-21T13:51:06.945Z,0.00
2019-01-21T13:52:06.909Z,5.63
2019-01-21T13:53:06.860Z,5.63
2019-01-21T13:54:06.823Z,5.63
2019-01-21T13:55:06.773Z,5.63
2019-01-21T13:56:06.726Z,5.63
2019-01-21T13:57:06.677Z,5.63
2019-01-21T13:58:06.642Z,0.00
2019-01-21T13:59:06.591Z,0.00
2019-01-21T14:00:06.552Z,0.00
2019-01-21T14:01:06.506Z,0.00
2019-01-21T14:02:06.460Z,0.00
2019-01-21T14:03:06.416Z,0.00
2019-01-21T14:04:06.375Z,0.00
2019-01-21T14:05:06.329Z,0.00
2019-01-21T14:06:06.294Z,0.00
2019-01-21T14:07:06.239Z,0.00
2019-01-21T14:08:06.194Z,0.00
2019-01-21T14:09:06.143Z,0.00
2019-01-21T14:10:06.108Z,0.00
2019-01-21T14:11:06.062Z,0.00
2019-01-21T14:12:06.019Z,0.00
2019-01-21T14:13:05.970Z,0.00
2019-01-21T14:14:05.926Z,0.00
2019-01-21T14:15:05.907Z,0.00
2019-01-21T14:16:05.839Z,0.00
2019-01-21T14:17:05.809Z,0.00
2019-01-21T14:18:05.756Z,0.00
2019-01-21T14:19:05.704Z,0.00
2019-01-21T14:20:05.661Z,0.00
2019-01-21T14:21:05.624Z,0.00
2019-01-21T14:22:05.573Z,0.00
2019-01-21T14:23:05.535Z,0.00
2019-01-21T14:24:05.483Z,0.00
2019-01-21T14:25:05.441Z,0.00
2019-01-21T14:26:05.394Z,0.00
2019-01-21T14:27:05.353Z,0.00
2019-01-21T14:28:05.303Z,0.00
2019-01-21T14:29:05.261Z,0.00
2019-01-21T14:30:05.215Z,0.00
2019-01-21T14:31:05.166Z,0.00
2019-01-21T14:32:05.130Z,0.00
2019-01-21T14:33:05.084Z,0.00
2019-01-21T14:34:05.039Z,0.00
2019-01-21T21:00:05.752Z,0.00
2019-01-21T21:01:05.595Z,0.00
2019-01-21T21:02:58.860Z,0.00
2019-01-21T21:03:58.784Z,0.00
2019-01-21T21:05:52.031Z,0.00
2019-01-21T21:06:51.965Z,0.00
2019-01-21T21:08:44.785Z,0.00
2019-01-21T21:09:44.699Z,0.00
2019-01-21T21:11:37.491Z,0.00
2019-01-21T21:12:37.437Z,0.00
2019-01-21T21:14:30.252Z,0.00
2019-01-21T21:15:30.173Z,0.00
2019-01-21T21:17:22.992Z,0.00
2019-01-21T21:18:22.928Z,0.00
2019-01-21T21:20:16.166Z,0.00
2019-01-21T21:21:16.113Z,0.00
2019-01-21T21:23:09.373Z,0.00
2019-01-21T21:24:09.305Z,0.00
2019-01-21T21:26:02.568Z,0.00
2019-01-21T21:27:02.501Z,0.00
2019-01-21T21:28:55.323Z,0.00
2019-01-21T21:29:55.259Z,0.00
2019-01-21T21:31:48.054Z,0.00
2019-01-21T21:32:48.017Z,0.00
2019-01-21T21:34:40.832Z,0.00
2019-01-21T21:35:40.749Z,0.00
2019-01-21T21:37:33.560Z,0.00
2019-01-21T21:38:33.505Z,0.00
2019-01-21T21:40:26.330Z,0.00
2019-01-21T21:41:26.280Z,0.00
2019-01-21T21:43:19.525Z,0.00
2019-01-21T21:44:19.454Z,0.00
2019-01-21T21:46:12.263Z,0.00
2019-01-21T21:47:12.207Z,0.00
2019-01-21T21:49:05.453Z,0.00
2019-01-21T21:50:05.379Z,0.00
2019-01-21T21:51:58.686Z,0.00
2019-01-21T21:52:58.630Z,0.00
2019-01-21T21:54:51.873Z,0.00
2019-01-21T21:55:51.804Z,0.00
2019-01-21T21:57:45.044Z,0.00
2019-01-21T21:58:44.989Z,0.00
2019-01-21T22:00:37.818Z,0.00
2019-01-21T22:01:40.103Z,0.00
2019-01-21T22:03:30.599Z,0.00
2019-01-21T22:04:30.526Z,0.00
2019-01-21T22:05:30.483Z,0.00
2019-01-21T22:06:30.439Z,0.00
2019-01-21T22:07:30.390Z,0.00
2019-01-21T22:08:30.525Z,0.00
2019-01-21T22:09:30.299Z,0.00
2019-01-21T22:10:30.261Z,0.00
2019-01-21T22:11:30.211Z,0.00
2019-01-21T22:12:30.171Z,0.00
2019-01-21T22:13:30.126Z,0.00
2019-01-21T22:14:30.086Z,0.00
2019-01-21T22:15:30.033Z,0.00
2019-01-21T22:16:29.992Z,0.00
2019-01-21T22:17:29.946Z,0.00
2019-01-21T22:18:29.904Z,0.00
2019-01-21T22:19:29.864Z,0.00
2019-01-21T22:20:29.815Z,0.00
2019-01-21T22:21:29.775Z,0.00
2019-01-21T22:22:34.727Z,0.00
2019-01-21T22:23:31.002Z,0.00
2019-01-21T22:24:29.640Z,0.00
2019-01-21T22:25:29.596Z,0.00
2019-01-21T22:26:29.547Z,0.00
2019-01-21T22:27:29.497Z,0.00
2019-01-21T22:28:29.458Z,0.00
2019-01-21T22:29:29.418Z,0.00
2019-01-21T22:30:29.366Z,0.00
2019-01-21T22:31:29.347Z,0.00
2019-01-21T22:32:29.277Z,0.00
2019-01-21T22:33:29.234Z,0.00
2019-01-21T22:34:29.189Z,0.00
2019-01-21T22:35:29.141Z,0.00
2019-01-21T22:36:29.100Z,0.00
2019-01-21T22:37:29.054Z,0.00
2019-01-21T22:38:29.011Z,0.00
2019-01-21T22:39:28.959Z,0.00
2019-01-21T22:40:28.925Z,0.00
2019-01-21T22:41:28.877Z,0.00
2019-01-21T22:42:28.836Z,0.00
2019-01-21T22:43:28.787Z,0.00
2019-01-21T22:44:28.744Z,0.00
2019-01-21T22:45:28.692Z,0.00
2019-01-21T22:46:28.653Z,0.00
2019-01-21T22:47:28.614Z,0.00
2019-01-21T22:48:28.581Z,0.00
2019-01-21T22:49:28.521Z,0.00
2019-01-21T22:50:28.474Z,0.00
2019-01-21T22:51:28.433Z,0.00
2019-01-21T22:52:28.385Z,0.00
2019-01-21T22:53:28.346Z,0.00
2019-01-21T22:54:28.292Z,0.00
2019-01-21T22:55:28.253Z,0.00
2019-01-21T22:56:28.203Z,0.00
2019-01-21T22:57:28.158Z,0.00
2019-01-21T22:58:28.109Z,0.00
2019-01-21T22:59:28.073Z,0.00
2019-01-21T23:00:28.028Z,0.00
2019-01-21T23:01:27.980Z,0.00
2019-01-21T23:02:27.938Z,0.00
2019-01-21T23:03:27.893Z,0.00
2019-01-21T23:04:27.848Z,0.00
2019-01-21T23:05:27.806Z,0.00
2019-01-21T23:06:27.758Z,0.00
2019-01-21T23:07:27.714Z,0.00
2019-01-21T23:08:27.667Z,0.00
2019-01-21T23:09:27.629Z,0.00
2019-01-21T23:10:27.580Z,0.00
2019-01-21T23:11:27.541Z,0.00
2019-01-21T23:12:27.494Z,0.00
2019-01-21T23:13:27.446Z,0.00
2019-01-21T23:14:27.405Z,0.00
2019-01-21T23:15:27.351Z,0.00
2019-01-21T23:16:27.313Z,0.00
2019-01-21T23:17:27.272Z,0.00
2019-01-21T23:18:27.226Z,0.00
2019-01-21T23:19:27.193Z,0.00
2019-01-21T23:20:27.136Z,0.00
2019-01-21T23:21:27.094Z,0.00
2019-01-21T23:22:27.041Z,0.00
2019-01-21T23:23:26.995Z,0.00
2019-01-21T23:24:26.952Z,0.00
2019-01-21T23:25:26.912Z,0.00
2019-01-21T23:26:26.869Z,0.00
2019-01-21T23:27:26.823Z,0.00
2019-01-21T23:28:26.779Z,0.00
2019-01-21T23:29:26.734Z,0.00
2019-01-21T23:30:26.705Z,0.00
2019-01-21T23:31:26.648Z,0.00
2019-01-21T23:32:26.604Z,0.00
2019-01-21T23:33:26.557Z,0.00
2019-01-21T23:34:26.509Z,0.00
2019-01-21T23:35:26.466Z,0.00
2019-01-21T23:36:26.421Z,0.00
2019-01-21T23:37:26.380Z,0.00
2019-01-21T23:38:26.347Z,0.00
2019-01-21T23:39:26.291Z,0.00
2019-01-21T23:40:26.245Z,0.00
2019-01-21T23:41:26.202Z,0.00
2019-01-21T23:42:26.163Z,0.00
2019-01-21T23:43:26.106Z,0.00
2019-01-21T23:44:26.069Z,0.00
2019-01-21T23:45:26.020Z,0.00
2019-01-21T23:46:25.974Z,0.00
2019-01-21T23:47:25.930Z,0.00
2019-01-21T23:48:25.887Z,0.00
2019-01-21T23:49:25.840Z,0.00
2019-01-21T23:50:25.815Z,0.00
2019-01-21T23:51:25.776Z,0.00
2019-01-21T23:52:25.729Z,0.00
2019-01-21T23:53:25.662Z,0.00
2019-01-21T23:54:25.615Z,0.00
2019-01-21T23:55:25.573Z,0.00
2019-01-21T23:56:25.528Z,0.00
2019-01-21T23:57:25.486Z,0.00
2019-01-21T23:58:25.462Z,0.00
2019-01-21T23:59:25.393Z,0.00
